Time;durP1;ratioP1;P1;durP2;ratioP2;P2;SDS_P1;SDS_P2;PMS_P1;PMS_P2;Temp;Humidity;BMP_temperature;BMP_pressure;BME280_temperature;BME280_humidity;BME280_pressure;Samples;Min_cycle;Max_cycle;Signal;HPM_P1;HPM_P2
2021/09/15 00:01:01;;;;;;;10.90;9.23;;;;;;;18.82;100.00;101001.69;5265444;28;20024;-68
2021/09/15 00:03:37;;;;;;;13.13;9.43;;;;;;;18.81;100.00;101000.88;5263325;28;20082;-68
2021/09/15 00:06:08;;;;;;;12.10;9.73;;;;;;;18.79;100.00;101004.69;5266843;28;20544;-68
2021/09/15 00:08:39;;;;;;;12.13;9.17;;;;;;;18.77;100.00;100999.59;5258742;28;20045;-68
2021/09/15 00:11:12;;;;;;;10.63;9.53;;;;;;;18.78;100.00;100998.56;5261747;28;20107;-68
2021/09/15 00:13:44;;;;;;;10.70;9.70;;;;;;;18.71;100.00;101000.28;5263467;28;20104;-68
2021/09/15 00:16:15;;;;;;;12.20;10.13;;;;;;;18.73;100.00;100998.28;5261882;28;20448;-68
2021/09/15 00:18:46;;;;;;;10.67;9.57;;;;;;;18.68;100.00;101001.47;5265008;28;20372;-68
2021/09/15 00:21:17;;;;;;;10.80;9.60;;;;;;;18.70;100.00;101001.28;5262857;28;20103;-68
2021/09/15 00:23:49;;;;;;;13.00;9.43;;;;;;;18.67;100.00;101012.25;5264172;28;20032;-68
2021/09/15 00:26:20;;;;;;;11.33;9.70;;;;;;;18.64;100.00;101002.00;5263160;28;20044;-68
2021/09/15 00:28:51;;;;;;;11.10;9.60;;;;;;;18.64;100.00;100999.34;5261046;28;20044;-68
2021/09/15 00:31:23;;;;;;;11.23;9.17;;;;;;;18.61;100.00;100997.06;5265171;28;20037;-68
2021/09/15 00:33:54;;;;;;;10.37;9.07;;;;;;;18.63;100.00;100995.84;5265333;28;20032;-67
2021/09/15 00:36:25;;;;;;;15.37;10.83;;;;;;;18.60;100.00;100988.28;5261777;28;20024;-68
2021/09/15 00:38:56;;;;;;;11.73;9.27;;;;;;;18.61;100.00;100989.09;5262749;28;20021;-68
2021/09/15 00:41:28;;;;;;;11.40;10.17;;;;;;;18.58;100.00;100979.66;5260047;28;20033;-68
2021/09/15 00:44:09;;;;;;;13.20;9.03;;;;;;;18.59;100.00;100981.28;5265147;28;20130;-68
2021/09/15 00:46:41;;;;;;;12.07;9.40;;;;;;;18.50;100.00;100987.69;5263233;28;20475;-68
2021/09/15 00:49:12;;;;;;;10.97;9.80;;;;;;;18.48;100.00;100982.53;5263751;28;20029;-68
2021/09/15 00:51:44;;;;;;;12.33;9.73;;;;;;;18.51;100.00;100984.03;5261595;28;20029;-68
2021/09/15 00:54:16;;;;;;;15.27;9.97;;;;;;;18.48;100.00;100973.75;5258074;28;20132;-68
2021/09/15 00:56:48;;;;;;;13.88;9.25;;;;;;;18.45;100.00;100977.63;5262778;28;20035;-68
2021/09/15 00:59:19;;;;;;;13.90;9.97;;;;;;;18.46;100.00;100981.09;5263549;28;20028;-68
2021/09/15 01:01:50;;;;;;;10.60;9.50;;;;;;;18.45;100.00;100974.97;5263048;28;20025;-68
2021/09/15 01:04:21;;;;;;;10.27;9.27;;;;;;;18.42;100.00;100977.16;5263663;28;20044;-68
2021/09/15 01:06:54;;;;;;;12.27;10.27;;;;;;;18.41;100.00;100983.44;5266015;28;20475;-68
2021/09/15 01:09:25;;;;;;;14.30;9.52;;;;;;;18.40;100.00;100982.59;5261170;28;20068;-68
2021/09/15 01:11:59;;;;;;;14.17;9.77;;;;;;;18.42;100.00;100983.28;5264421;28;20032;-67
2021/09/15 01:14:31;;;;;;;12.07;9.85;;;;;;;18.37;100.00;100982.13;5260975;28;20490;-67
2021/09/15 01:17:02;;;;;;;10.85;9.52;;;;;;;18.38;100.00;100981.16;5262228;28;20039;-68
2021/09/15 01:19:34;;;;;;;12.87;9.77;;;;;;;18.36;100.00;100983.16;5268555;28;20081;-68
2021/09/15 01:22:05;;;;;;;10.53;9.43;;;;;;;18.35;100.00;100994.78;5264387;28;20021;-68
2021/09/15 01:24:36;;;;;;;12.67;9.87;;;;;;;18.35;100.00;100989.47;5264083;28;20025;-67
2021/09/15 01:27:08;;;;;;;10.23;9.13;;;;;;;18.34;100.00;100979.88;5263581;28;20123;-68
2021/09/15 01:29:39;;;;;;;12.70;9.60;;;;;;;18.25;100.00;100965.81;5264520;28;20025;-68
2021/09/15 01:32:13;;;;;;;10.00;9.00;;;;;;;18.31;100.00;100969.59;5265203;28;20433;-67
2021/09/15 01:34:53;;;;;;;10.85;8.95;;;;;;;18.30;100.00;100967.97;5262597;28;20108;-68
2021/09/15 01:37:25;;;;;;;10.35;8.93;;;;;;;18.28;100.00;100965.47;5265667;28;20063;-67
2021/09/15 01:39:56;;;;;;;11.07;9.98;;;;;;;18.28;100.00;100954.84;5266712;28;20408;-68
2021/09/15 01:42:27;;;;;;;11.20;9.37;;;;;;;18.28;100.00;100948.75;5265887;28;20020;-67
2021/09/15 01:44:58;;;;;;;12.53;9.03;;;;;;;18.26;100.00;100958.69;5263308;28;20093;-68
2021/09/15 01:47:30;;;;;;;11.75;9.68;;;;;;;18.23;100.00;100960.69;5264522;28;20029;-67
2021/09/15 01:50:01;;;;;;;12.23;9.57;;;;;;;18.22;100.00;100953.75;5263092;28;20032;-67
2021/09/15 01:52:33;;;;;;;13.52;9.07;;;;;;;18.19;100.00;100948.81;5263413;28;20067;-67
2021/09/15 01:55:06;;;;;;;11.05;9.70;;;;;;;18.16;100.00;100948.34;5264143;28;20036;-68
2021/09/15 01:57:37;;;;;;;11.52;9.30;;;;;;;18.14;100.00;100947.66;5263508;28;20028;-68
2021/09/15 02:00:09;;;;;;;10.83;9.57;;;;;;;18.14;100.00;100958.28;5262108;28;20086;-67
2021/09/15 02:02:41;;;;;;;11.17;9.57;;;;;;;18.12;100.00;100955.00;5264508;28;20397;-67
2021/09/15 02:05:12;;;;;;;12.40;8.40;;;;;;;18.12;100.00;100955.00;5262857;28;20028;-68
2021/09/15 02:07:44;;;;;;;11.73;9.40;;;;;;;18.17;100.00;100955.28;5263859;28;20052;-68
2021/09/15 02:10:15;;;;;;;13.03;10.37;;;;;;;18.14;100.00;100951.13;5262047;28;20064;-68
2021/09/15 02:12:46;;;;;;;12.87;10.27;;;;;;;18.11;100.00;100943.56;5263621;28;20025;-68
2021/09/15 02:15:18;;;;;;;11.27;10.07;;;;;;;18.09;100.00;100945.56;5265345;28;20481;-68
2021/09/15 02:17:49;;;;;;;10.73;9.20;;;;;;;18.10;100.00;100947.19;5263171;28;20498;-68
2021/09/15 02:20:20;;;;;;;12.80;9.55;;;;;;;18.09;100.00;100950.84;5263820;28;20036;-67
2021/09/15 02:22:52;;;;;;;10.80;9.53;;;;;;;18.10;100.00;100949.84;5264085;28;20036;-67
2021/09/15 02:25:23;;;;;;;14.45;9.60;;;;;;;18.11;100.00;100946.22;5262239;28;20052;-68
2021/09/15 02:27:54;;;;;;;12.43;10.27;;;;;;;18.12;100.00;100941.72;5263030;28;20024;-68
2021/09/15 02:30:25;;;;;;;11.77;9.60;;;;;;;18.13;100.00;100948.69;5265130;28;20111;-68
2021/09/15 02:32:57;;;;;;;11.10;9.90;;;;;;;18.12;100.00;100937.25;5264462;28;20032;-68
2021/09/15 02:35:28;;;;;;;10.35;9.27;;;;;;;18.12;100.00;100942.56;5261924;28;20036;-68
2021/09/15 02:37:59;;;;;;;12.60;9.77;;;;;;;18.14;100.00;100943.19;5264685;28;20030;-68
2021/09/15 02:40:30;;;;;;;15.07;10.27;;;;;;;18.15;100.00;100936.09;5263082;28;20429;-68
2021/09/15 02:43:03;;;;;;;12.53;10.27;;;;;;;18.14;100.00;100929.94;5263219;28;20317;-68
2021/09/15 02:45:34;;;;;;;12.20;9.70;;;;;;;18.15;100.00;100930.78;5262264;28;20051;-67
2021/09/15 02:48:06;;;;;;;12.57;9.87;;;;;;;18.17;100.00;100932.22;5262843;28;20020;-67
2021/09/15 02:50:37;;;;;;;16.37;9.53;;;;;;;18.13;100.00;100930.94;5264401;28;20494;-67
2021/09/15 02:53:09;;;;;;;10.77;9.67;;;;;;;18.15;100.00;100920.19;5264472;28;20343;-67
2021/09/15 02:55:40;;;;;;;14.47;9.47;;;;;;;18.15;100.00;100923.66;5262908;28;20312;-67
2021/09/15 02:58:11;;;;;;;14.05;9.18;;;;;;;18.15;100.00;100915.69;5262999;28;20025;-68
2021/09/15 03:00:43;;;;;;;11.37;9.50;;;;;;;18.15;100.00;100915.69;5262596;28;20294;-67
2021/09/15 03:03:14;;;;;;;14.60;9.35;;;;;;;18.15;100.00;100910.38;5270102;28;20035;-68
2021/09/15 03:05:45;;;;;;;11.97;10.00;;;;;;;18.15;100.00;100912.22;5262234;28;20028;-68
2021/09/15 03:08:17;;;;;;;11.33;10.03;;;;;;;18.16;100.00;100908.56;5260304;28;20498;-68
2021/09/15 03:10:48;;;;;;;12.40;10.70;;;;;;;18.17;100.00;100918.97;5263261;28;20498;-68
2021/09/15 03:13:20;;;;;;;11.67;9.67;;;;;;;18.13;100.00;100908.91;5261918;28;20025;-68
2021/09/15 03:15:51;;;;;;;13.67;9.97;;;;;;;18.17;100.00;100913.66;5263092;28;20054;-67
2021/09/15 03:18:22;;;;;;;10.65;9.07;;;;;;;18.16;100.00;100906.72;5262784;28;20485;-67
2021/09/15 03:20:53;;;;;;;10.88;9.40;;;;;;;18.10;100.00;100888.88;5261463;28;21186;-68
2021/09/15 03:23:25;;;;;;;10.90;9.77;;;;;;;18.18;100.00;100904.75;5260543;28;20549;-67
2021/09/15 03:25:56;;;;;;;15.40;10.13;;;;;;;18.15;100.00;100910.38;5263361;28;20482;-68
2021/09/15 03:28:27;;;;;;;18.50;10.03;;;;;;;18.17;100.00;100905.72;5262051;28;20471;-67
2021/09/15 03:30:58;;;;;;;11.07;9.60;;;;;;;18.17;100.00;100908.38;5261833;28;20541;-68
2021/09/15 03:33:30;;;;;;;10.97;9.53;;;;;;;18.18;100.00;100904.75;5260118;28;20021;-67
2021/09/15 03:36:01;;;;;;;12.10;9.27;;;;;;;18.19;100.00;100902.91;5263384;28;20112;-67
2021/09/15 03:38:32;;;;;;;11.60;9.87;;;;;;;18.19;100.00;100898.41;5262182;28;20036;-68
2021/09/15 03:41:04;;;;;;;12.17;10.73;;;;;;;18.23;100.00;100905.00;5259678;28;20018;-67
2021/09/15 03:43:35;;;;;;;12.65;10.50;;;;;;;18.21;100.00;100900.88;5261576;28;20036;-67
2021/09/15 03:46:06;;;;;;;14.30;9.77;;;;;;;18.23;100.00;100898.88;5261089;28;20634;-67
2021/09/15 03:48:38;;;;;;;12.57;10.97;;;;;;;18.26;100.00;100900.34;5264840;28;20470;-67
2021/09/15 03:51:09;;;;;;;12.32;11.02;;;;;;;18.27;100.00;100894.06;5264409;28;20095;-67
2021/09/15 03:53:40;;;;;;;12.33;10.63;;;;;;;18.28;100.00;100890.38;5262303;28;20151;-67
2021/09/15 03:56:12;;;;;;;14.67;10.10;;;;;;;18.29;100.00;100890.19;5262566;28;20360;-68
2021/09/15 03:58:43;;;;;;;12.30;10.05;;;;;;;18.30;100.00;100889.22;5261937;28;20090;-68
2021/09/15 04:01:15;;;;;;;11.17;10.03;;;;;;;18.29;100.00;100890.19;5262043;28;20405;-67
2021/09/15 04:03:46;;;;;;;13.50;11.13;;;;;;;18.31;100.00;100893.50;5261884;28;20069;-68
2021/09/15 04:06:17;;;;;;;14.27;11.83;;;;;;;18.33;100.00;100885.38;5258973;28;20411;-67
2021/09/15 04:08:48;;;;;;;13.00;10.93;;;;;;;18.33;100.00;100880.06;5261757;28;20041;-67
2021/09/15 04:11:20;;;;;;;13.40;10.77;;;;;;;18.34;100.00;100879.91;5262892;28;20395;-67
2021/09/15 04:13:51;;;;;;;13.77;10.63;;;;;;;18.35;100.00;100889.50;5263545;28;20028;-67
2021/09/15 04:16:22;;;;;;;11.30;10.13;;;;;;;18.35;100.00;100889.50;5261976;28;20394;-67
2021/09/15 04:18:54;;;;;;;11.52;10.40;;;;;;;18.36;100.00;100891.13;5264495;28;20056;-67
2021/09/15 04:21:25;;;;;;;11.70;10.47;;;;;;;18.38;100.00;100885.66;5260926;28;20021;-67
2021/09/15 04:32:07;;;;;;;11.88;10.63;;;;;;;18.36;100.00;100895.63;5261212;28;20033;-67
2021/09/15 04:34:38;;;;;;;12.52;11.32;;;;;;;18.38;100.00;100897.09;5261111;28;20379;-67
2021/09/15 04:37:10;;;;;;;12.80;11.60;;;;;;;18.41;100.00;100894.09;5262690;28;20071;-67
2021/09/15 04:39:41;;;;;;;15.15;11.13;;;;;;;18.43;100.00;100893.91;5261925;28;20486;-67
2021/09/15 04:42:12;;;;;;;11.87;10.70;;;;;;;18.41;100.00;100893.25;5260787;28;20059;-67
2021/09/15 04:44:44;;;;;;;13.83;11.30;;;;;;;18.42;100.00;100885.13;5262021;28;20025;-68
2021/09/15 04:47:15;;;;;;;14.07;11.80;;;;;;;18.41;100.00;100891.44;5266678;28;20445;-67
2021/09/15 04:49:46;;;;;;;15.57;10.97;;;;;;;18.39;100.00;100888.13;5265128;28;20024;-69
2021/09/15 04:52:17;;;;;;;13.57;11.40;;;;;;;18.40;100.00;100889.75;5266266;28;20068;-69
2021/09/15 04:54:49;;;;;;;14.73;11.03;;;;;;;18.37;100.00;100890.16;5267489;28;20055;-69
2021/09/15 04:57:20;;;;;;;11.93;10.63;;;;;;;18.38;100.00;100883.00;5266318;28;20028;-69
2021/09/15 04:59:51;;;;;;;16.00;11.33;;;;;;;18.38;100.00;100883.84;5264908;28;20024;-69
2021/09/15 05:02:22;;;;;;;13.70;10.60;;;;;;;18.38;100.00;100881.19;5264818;28;20033;-69
2021/09/15 05:04:54;;;;;;;12.00;10.75;;;;;;;18.38;100.00;100888.31;5263959;28;20025;-67
2021/09/15 05:07:25;;;;;;;10.57;9.50;;;;;;;18.36;100.00;100885.81;5264405;28;20032;-67
2021/09/15 05:09:56;;;;;;;13.53;11.07;;;;;;;18.39;100.00;100890.78;5263822;28;20031;-67
2021/09/15 05:12:27;;;;;;;13.00;10.53;;;;;;;18.39;100.00;100885.47;5263646;28;20040;-68
2021/09/15 05:14:59;;;;;;;13.73;11.30;;;;;;;18.37;100.00;100894.59;5268053;28;20035;-67
2021/09/15 05:17:30;;;;;;;12.30;11.00;;;;;;;18.39;100.00;100884.66;5264588;28;20493;-67
2021/09/15 05:20:02;;;;;;;12.20;10.27;;;;;;;18.37;100.00;100889.31;5264702;28;20463;-68
2021/09/15 05:22:33;;;;;;;11.35;10.25;;;;;;;18.37;100.00;100887.50;5260917;28;20033;-68
2021/09/15 05:25:05;;;;;;;12.30;10.57;;;;;;;18.37;100.00;100884.00;5263384;28;20029;-68
2021/09/15 05:27:36;;;;;;;13.43;11.03;;;;;;;18.37;100.00;100884.00;5264607;28;20042;-68
2021/09/15 05:30:09;;;;;;;11.87;10.13;;;;;;;18.37;100.00;100882.19;5264135;28;20086;-68
2021/09/15 05:32:41;;;;;;;11.43;10.30;;;;;;;18.35;100.00;100886.84;5258087;28;20470;-68
2021/09/15 05:35:14;;;;;;;12.82;10.35;;;;;;;18.38;100.00;100883.00;5261541;28;20069;-69
2021/09/15 05:37:45;;;;;;;;;;;;;;;18.68;100.00;100892.66;5264453;28;20178;-68
2021/09/15 05:40:16;;;;;;;13.50;11.35;;;;;;;18.41;100.00;100888.78;5263576;28;20003;-67
2021/09/15 05:42:48;;;;;;;13.80;10.97;;;;;;;18.40;100.00;100889.75;5264543;28;20025;-67
2021/09/15 05:45:20;;;;;;;15.30;12.53;;;;;;;18.41;100.00;100894.09;5263376;28;20475;-67
2021/09/15 05:47:51;;;;;;;13.27;11.83;;;;;;;18.40;100.00;100894.25;5263159;28;20035;-67
2021/09/15 05:50:22;;;;;;;19.27;12.77;;;;;;;18.38;100.00;100888.31;5261811;28;20521;-68
2021/09/15 05:52:53;;;;;;;17.90;12.97;;;;;;;18.40;100.00;100896.91;5265647;28;20029;-67
2021/09/15 05:55:25;;;;;;;17.47;14.13;;;;;;;18.40;100.00;100910.16;5265446;28;20111;-67
2021/09/15 05:57:57;;;;;;;19.27;14.33;;;;;;;18.41;100.00;100914.47;5263081;28;20071;-67
2021/09/15 06:00:28;;;;;;;14.50;13.00;;;;;;;18.39;100.00;100905.88;5262276;28;20106;-67
2021/09/15 06:02:59;;;;;;;14.80;13.30;;;;;;;18.41;100.00;100904.69;5268052;28;20504;-67
2021/09/15 06:05:31;;;;;;;13.80;12.40;;;;;;;18.44;100.00;100904.31;5254839;28;20640;-67
2021/09/15 06:08:02;;;;;;;15.23;13.63;;;;;;;18.43;100.00;100910.63;5263014;28;20476;-68
2021/09/15 06:10:33;;;;;;;17.37;14.53;;;;;;;18.46;100.00;100904.97;5260293;28;20033;-67
2021/09/15 06:13:05;;;;;;;16.40;14.60;;;;;;;18.47;100.00;100908.44;5260347;28;20115;-68
2021/09/15 06:15:36;;;;;;;16.93;15.07;;;;;;;18.48;100.00;100916.22;5261367;28;20024;-67
2021/09/15 06:18:07;;;;;;;17.73;15.87;;;;;;;18.48;100.00;100910.09;5260380;28;20032;-67
2021/09/15 06:20:39;;;;;;;18.27;16.10;;;;;;;18.50;100.00;100916.06;5261879;28;20251;-67
2021/09/15 06:23:11;;;;;;;17.53;15.73;;;;;;;18.50;100.00;100921.34;5259802;28;20067;-67
2021/09/15 06:25:43;;;;;;;19.40;17.17;;;;;;;18.50;100.00;100907.28;5256486;28;20034;-68
2021/09/15 06:28:14;;;;;;;20.03;17.50;;;;;;;18.51;100.00;100912.38;5259266;28;20108;-68
2021/09/15 06:30:47;;;;;;;21.27;19.03;;;;;;;18.53;100.00;100913.03;5263103;28;20032;-68
2021/09/15 06:33:19;;;;;;;20.73;18.20;;;;;;;18.51;100.00;100908.91;5255526;28;20058;-67
2021/09/15 06:35:51;;;;;;;22.13;18.05;;;;;;;18.53;100.00;100910.38;5259225;28;20029;-67
2021/09/15 06:38:23;;;;;;;20.55;18.05;;;;;;;18.54;100.00;100917.34;5261603;28;20033;-68
2021/09/15 06:40:54;;;;;;;23.43;19.87;;;;;;;18.54;100.00;100920.00;5259826;28;20017;-67
2021/09/15 06:43:26;;;;;;;26.43;20.73;;;;;;;18.55;100.00;100926.94;5258320;28;20032;-67
2021/09/15 06:45:57;;;;;;;25.97;20.80;;;;;;;18.55;100.00;100926.13;5262664;28;20035;-67
2021/09/15 06:48:28;;;;;;;26.23;21.77;;;;;;;18.55;100.00;100921.63;5261269;28;20047;-68
2021/09/15 06:51:00;;;;;;;25.77;22.70;;;;;;;18.56;100.00;100923.31;5260675;28;20025;-67
2021/09/15 06:53:31;;;;;;;27.97;21.93;;;;;;;18.58;100.00;100933.72;5259393;28;20127;-68
2021/09/15 06:56:02;;;;;;;27.30;24.30;;;;;;;18.59;100.00;100938.00;5258600;28;20028;-66
2021/09/15 06:58:34;;;;;;;26.47;23.70;;;;;;;18.56;100.00;100922.44;5260331;28;20044;-67
2021/09/15 07:01:05;;;;;;;26.80;24.00;;;;;;;18.62;100.00;100929.69;5261270;28;20063;-68
2021/09/15 07:03:36;;;;;;;30.83;24.07;;;;;;;18.66;100.00;100934.47;5260267;28;20054;-67
2021/09/15 07:06:08;;;;;;;28.63;25.53;;;;;;;18.68;100.00;100945.72;5261031;28;20087;-68
2021/09/15 07:08:39;;;;;;;32.83;26.43;;;;;;;18.71;100.00;100948.06;5260374;28;20528;-68
2021/09/15 07:11:11;;;;;;;34.47;26.87;;;;;;;18.73;100.00;100945.22;5260919;28;20036;-68
2021/09/15 07:13:42;;;;;;;28.53;25.53;;;;;;;18.73;100.00;100950.53;5261171;28;20043;-68
2021/09/15 07:16:13;;;;;;;28.33;25.33;;;;;;;18.79;100.00;100951.63;5260289;28;20029;-68
2021/09/15 07:18:44;;;;;;;29.70;26.70;;;;;;;18.81;100.00;100947.78;5260936;28;20038;-68
2021/09/15 07:21:16;;;;;;;28.57;25.57;;;;;;;18.83;100.00;100951.09;5260972;28;20032;-68
2021/09/15 07:23:47;;;;;;;31.37;27.70;;;;;;;18.84;100.00;100959.88;5258986;28;20534;-67
2021/09/15 07:26:19;;;;;;;30.80;26.60;;;;;;;18.87;100.00;100951.56;5260629;28;20036;-68
2021/09/15 07:28:50;;;;;;;30.67;26.83;;;;;;;18.89;100.00;100946.88;5260375;28;20036;-68
2021/09/15 07:31:21;;;;;;;36.67;30.63;;;;;;;18.91;100.00;100942.22;5259767;28;20124;-68
2021/09/15 07:33:53;;;;;;;38.30;32.67;;;;;;;18.98;100.00;100948.44;5261325;28;20035;-67
2021/09/15 07:36:24;;;;;;;40.93;34.13;;;;;;;19.00;100.00;100951.75;5260388;28;20074;-68
2021/09/15 07:38:55;;;;;;;41.53;35.00;;;;;;;19.02;100.00;100951.56;5257092;28;20025;-69
2021/09/15 07:41:27;;;;;;;39.67;35.43;;;;;;;19.03;100.00;100954.03;5260107;28;20573;-68
2021/09/15 07:43:59;;;;;;;43.63;37.80;;;;;;;19.00;100.00;100957.03;5257050;28;20695;-68
2021/09/15 07:46:30;;;;;;;46.85;38.53;;;;;;;19.03;100.00;100953.22;5260598;28;20037;-67
2021/09/15 07:49:01;;;;;;;50.83;40.53;;;;;;;19.04;100.00;100963.63;5259485;28;20529;-68
2021/09/15 07:51:33;;;;;;;43.57;38.27;;;;;;;19.06;100.00;100956.31;5258925;28;20029;-68
2021/09/15 07:54:05;;;;;;;45.17;38.73;;;;;;;19.05;100.00;100954.66;5260948;28;20069;-68
2021/09/15 07:56:36;;;;;;;48.05;38.97;;;;;;;19.03;100.00;100951.38;5260246;28;20043;-68
2021/09/15 07:59:07;;;;;;;47.07;39.10;;;;;;;19.05;100.00;100945.88;5262612;28;20445;-68
2021/09/15 08:01:38;;;;;;;49.47;39.93;;;;;;;19.11;100.00;100938.00;5261917;28;20375;-69
2021/09/15 08:04:10;;;;;;;48.43;41.40;;;;;;;19.14;100.00;100942.94;5259677;28;20024;-69
2021/09/15 08:06:41;;;;;;;45.90;40.50;;;;;;;19.21;100.00;100943.03;5262811;28;20033;-68
2021/09/15 08:09:12;;;;;;;45.17;40.27;;;;;;;19.27;100.00;100933.50;5254479;28;20059;-67
2021/09/15 08:11:44;;;;;;;48.00;41.87;;;;;;;19.33;100.00;100943.41;5258331;28;20036;-68
2021/09/15 08:14:15;;;;;;;49.47;43.30;;;;;;;19.35;100.00;100936.06;5259488;28;20033;-69
2021/09/15 08:16:46;;;;;;;51.27;43.03;;;;;;;19.41;100.00;100938.81;5260646;28;20430;-69
2021/09/15 08:19:19;;;;;;;52.57;43.10;;;;;;;19.43;100.00;100935.94;5260199;28;20086;-67
2021/09/15 08:21:50;;;;;;;;;;;;;;;19.75;100.00;100928.59;5262383;28;20030;-69
2021/09/15 08:24:22;;;;;;;48.60;41.33;;;;;;;19.52;100.00;100931.38;5245628;28;19920;-69
2021/09/15 08:26:53;;;;;;;50.97;42.73;;;;;;;19.59;100.00;100942.91;5264554;28;20427;-69
2021/09/15 08:29:24;;;;;;;49.50;41.37;;;;;;;19.59;100.00;100938.41;5262663;28;20043;-68
2021/09/15 08:31:56;;;;;;;50.27;41.43;;;;;;;19.65;100.00;100935.00;5260284;28;20119;-68
2021/09/15 08:34:27;;;;;;;48.43;42.47;;;;;;;19.69;100.00;100940.78;5266529;28;20033;-69
2021/09/15 08:36:58;;;;;;;46.57;40.00;;;;;;;19.71;100.00;100936.13;5265856;28;20033;-68
2021/09/15 08:39:30;;;;;;;49.93;41.73;;;;;;;19.72;100.00;100942.25;5262400;28;20032;-69
2021/09/15 08:42:01;;;;;;;47.10;41.00;;;;;;;19.80;100.00;100947.44;5264406;28;20032;-69
2021/09/15 08:44:32;;;;;;;46.10;41.07;;;;;;;19.78;100.00;100945.00;5259530;28;20039;-69
2021/09/15 08:47:06;;;;;;;46.80;41.73;;;;;;;19.78;100.00;100946.84;5259205;28;20374;-68
2021/09/15 08:49:37;;;;;;;47.28;42.33;;;;;;;19.77;100.00;100938.00;5257180;28;20039;-68
2021/09/15 08:52:09;;;;;;;46.07;40.80;;;;;;;19.85;100.00;100951.19;5262658;28;20029;-69
2021/09/15 08:54:40;;;;;;;46.40;39.87;;;;;;;19.88;100.00;100953.47;5253616;28;20036;-69
2021/09/15 08:57:11;;;;;;;44.93;39.67;;;;;;;19.89;100.00;100954.31;5259806;28;20021;-69
2021/09/15 08:59:42;;;;;;;48.77;41.30;;;;;;;19.96;100.00;100954.34;5261929;28;20024;-69
2021/09/15 09:02:15;;;;;;;46.40;40.63;;;;;;;19.93;100.00;100960.91;5261486;28;20017;-67
2021/09/15 09:04:51;;;;;;;44.60;39.80;;;;;;;19.99;100.00;100965.44;5262275;28;20514;-68
2021/09/15 09:07:24;;;;;;;48.38;41.13;;;;;;;19.89;100.00;100965.78;5258899;28;20474;-70
2021/09/15 09:09:59;;;;;;;45.85;39.97;;;;;;;19.92;100.00;100977.84;5261918;28;20446;-69
2021/09/15 09:12:31;;;;;;;44.58;38.53;;;;;;;19.91;100.00;100978.84;5264667;28;20166;-69
2021/09/15 09:15:23;;;;;;;44.35;39.70;;;;;;;20.11;100.00;100989.69;5260109;28;20078;-68
2021/09/15 09:18:00;;;;;;;47.00;38.78;;;;;;;19.93;100.00;100988.31;5261912;28;20025;-68
2021/09/15 09:20:36;;;;;;;44.28;39.58;;;;;;;19.99;100.00;100980.56;5257277;28;20035;-69
2021/09/15 09:23:18;;;;;;;45.17;39.60;;;;;;;20.02;100.00;100981.03;5258526;28;20032;-68
2021/09/15 09:25:55;;;;;;;45.97;39.08;;;;;;;20.07;100.00;100978.63;5258783;28;20108;-68
2021/09/15 09:28:32;;;;;;;46.00;40.17;;;;;;;20.06;100.00;100974.31;5264624;28;20060;-69
2021/09/15 09:31:07;;;;;;;51.15;42.10;;;;;;;19.97;100.00;100974.66;5260294;28;20082;-68
2021/09/15 09:33:38;;;;;;;49.90;43.80;;;;;;;19.88;100.00;100966.75;5263056;28;20045;-67
2021/09/15 09:36:10;;;;;;;52.57;43.33;;;;;;;19.98;100.00;100969.13;5262389;28;20040;-68
2021/09/15 09:38:45;;;;;;;47.43;39.80;;;;;;;19.96;100.00;100973.78;5263314;28;20032;-68
2021/09/15 09:41:20;;;;;;;48.47;42.63;;;;;;;19.91;100.00;100973.53;5261184;28;20108;-69
2021/09/15 09:43:53;;;;;;;47.40;42.08;;;;;;;19.92;100.00;100978.66;5260638;28;20127;-69
2021/09/15 09:46:33;;;;;;;47.85;42.67;;;;;;;19.95;100.00;100984.63;5263939;28;20032;-69
2021/09/15 09:49:05;;;;;;;44.58;39.60;;;;;;;19.90;100.00;100985.19;5264211;28;20033;-68
2021/09/15 09:51:38;;;;;;;42.93;38.37;;;;;;;19.81;100.00;100986.31;5257166;28;20588;-69
2021/09/15 09:54:28;;;;;;;;;;;;;;;20.13;100.00;100991.16;5259603;28;20333;-69
2021/09/15 09:56:59;;;;;;;41.88;36.67;;;;;;;19.65;100.00;101012.09;5263167;28;19916;-68
2021/09/15 09:59:31;;;;;;;42.47;36.83;;;;;;;19.63;100.00;101011.47;5259215;28;20043;-68
2021/09/15 10:02:05;;;;;;;43.90;36.88;;;;;;;19.71;100.00;101015.88;5260055;28;20070;-68
2021/09/15 10:04:37;;;;;;;41.03;36.42;;;;;;;19.67;100.00;101023.38;5256071;28;20116;-68
2021/09/15 10:07:12;;;;;;;39.50;34.37;;;;;;;19.66;100.00;101027.06;5255765;28;20035;-69
2021/09/15 10:09:43;;;;;;;40.92;35.47;;;;;;;19.55;100.00;101026.66;5257986;28;20051;-68
2021/09/15 10:12:15;;;;;;;37.13;33.13;;;;;;;19.54;100.00;101028.47;5256904;28;20502;-68
2021/09/15 10:14:47;;;;;;;37.50;33.53;;;;;;;19.62;100.00;101036.41;5261546;28;20032;-69
2021/09/15 10:17:25;;;;;;;34.93;30.83;;;;;;;19.65;100.00;101032.53;5262730;28;20028;-68
2021/09/15 10:19:58;;;;;;;35.15;31.00;;;;;;;19.68;100.00;101035.66;5261820;28;20028;-69
2021/09/15 10:22:31;;;;;;;35.85;31.73;;;;;;;19.93;100.00;101027.38;5265628;28;20027;-69
2021/09/15 10:25:05;;;;;;;33.28;29.35;;;;;;;19.94;100.00;101029.00;5265322;28;20481;-69
2021/09/15 10:27:55;;;;;;;33.40;29.98;;;;;;;20.02;100.00;101020.09;5266744;28;20504;-68
2021/09/15 10:30:43;;;;;;;34.72;29.63;;;;;;;19.91;100.00;101034.69;5265564;28;20036;-69
2021/09/15 10:33:36;;;;;;;31.42;28.02;;;;;;;19.90;100.00;101033.06;5266707;28;20025;-68
2021/09/15 10:36:13;;;;;;;33.13;28.40;;;;;;;19.80;100.00;101035.19;5265656;28;20115;-68
2021/09/15 10:38:54;;;;;;;29.65;26.67;;;;;;;19.85;100.00;101032.78;5266571;28;20407;-68
2021/09/15 10:41:38;;;;;;;27.38;24.55;;;;;;;19.83;100.00;101032.97;5264684;28;20033;-68
2021/09/15 10:44:15;;;;;;;27.45;23.75;;;;;;;19.80;100.00;101043.97;5265695;28;20062;-69
2021/09/15 10:46:46;;;;;;;26.38;23.67;;;;;;;19.89;100.00;101031.41;5267528;28;20048;-68
2021/09/15 10:49:23;;;;;;;23.60;21.13;;;;;;;19.81;100.00;101040.31;5265547;28;20111;-68
2021/09/15 10:52:07;;;;;;;22.35;19.95;;;;;;;19.91;100.00;101024.06;5265919;28;20025;-68
2021/09/15 10:54:46;;;;;;;21.80;19.60;;;;;;;20.01;100.00;101018.47;5264199;28;20035;-67
2021/09/15 10:57:26;;;;;;;22.33;20.05;;;;;;;20.30;100.00;101038.81;5262913;28;20024;-67
2021/09/15 10:59:59;;;;;;;20.83;18.75;;;;;;;20.23;100.00;101038.75;5264356;28;20509;-67
2021/09/15 11:02:43;;;;;;;20.65;18.55;;;;;;;20.28;100.00;101038.19;5262019;28;20019;-68
2021/09/15 11:05:26;;;;;;;20.70;18.70;;;;;;;20.37;100.00;101035.19;5262440;28;20020;-68
2021/09/15 11:07:58;;;;;;;21.67;19.55;;;;;;;20.44;100.00;101021.97;5262825;28;20429;-67
2021/09/15 11:10:38;;;;;;;20.60;18.60;;;;;;;20.45;100.00;101034.25;5260912;28;20029;-67
2021/09/15 11:13:15;;;;;;;18.75;16.85;;;;;;;20.28;100.00;101032.88;5259978;28;20080;-68
2021/09/15 11:15:48;;;;;;;18.58;16.73;;;;;;;20.13;100.00;101028.41;5258156;28;20041;-67
2021/09/15 11:18:21;;;;;;;18.38;16.52;;;;;;;19.99;100.00;101039.91;5245552;28;20047;-67
2021/09/15 11:21:03;;;;;;;17.30;15.50;;;;;;;20.11;100.00;101051.69;5264757;28;20036;-66
2021/09/15 11:23:35;;;;;;;16.23;14.73;;;;;;;20.12;100.00;101040.06;5245700;28;20117;-67
2021/09/15 11:26:06;;;;;;;16.77;15.07;;;;;;;20.20;100.00;101048.94;5263925;28;20063;-68
2021/09/15 11:28:37;;;;;;;14.13;12.83;;;;;;;20.24;100.00;101039.56;5261164;28;20029;-67
2021/09/15 11:31:09;;;;;;;13.23;11.87;;;;;;;20.26;100.00;101040.19;5260604;28;20087;-68
2021/09/15 11:33:40;;;;;;;12.13;10.90;;;;;;;20.36;100.00;101036.22;5258798;28;20037;-67
2021/09/15 11:36:11;;;;;;;12.47;9.07;;;;;;;20.49;100.00;101040.88;5256433;28;20025;-68